Time;durP1;ratioP1;P1;durP2;ratioP2;P2;SDS_P1;SDS_P2;PMS_P1;PMS_P2;Temp;Humidity;BMP_temperature;BMP_pressure;BME280_temperature;BME280_humidity;BME280_pressure;Samples;Min_cycle;Max_cycle;Signal;HPM_P1;HPM_P2
2021/03/30 00:01:28;;;;;;;;;;;;;;;4.23;55.11;102258.92;1751871;81;20227;-57
2021/03/30 00:04:33;;;;;;;;;;;;;;;4.23;55.11;102265.70;1753755;81;20282;-57
2021/03/30 00:07:38;;;;;;;;;;;;;;;4.23;55.04;102271.12;1737827;81;20291;-57
2021/03/30 00:10:48;;;;;;;;;;;;;;;4.21;55.02;102277.13;1705275;82;20560;-57
2021/03/30 00:13:52;;;;;;;;;;;;;;;4.20;55.11;102275.88;1688708;83;20284;-57
2021/03/30 00:16:58;;;;;;;;;;;;;;;4.17;55.14;102275.55;1687994;82;20332;-57
2021/03/30 00:20:02;;;;;;;;;;;;;;;4.16;55.20;102276.52;1688050;83;20295;-57
2021/03/30 00:23:06;;;;;;;;;;;;;;;4.14;55.30;102276.20;1687409;83;20291;-57
2021/03/30 00:26:09;;;;;;;;;;;;;;;4.10;55.34;102284.13;1688797;83;20307;-57
2021/03/30 00:29:13;;;;;;;;;;;;;;;4.04;55.46;102278.56;1687882;83;20279;-57
2021/03/30 00:32:19;;;;;;;;;;;;;;;4.02;55.53;102284.58;1688231;83;20212;-56
2021/03/30 00:35:23;;;;;;;;;;;;;;;4.01;55.59;102281.95;1688316;83;20248;-57
2021/03/30 00:38:27;;;;;;;;;;;;;;;3.99;55.61;102291.53;1686966;85;20209;-57
2021/03/30 00:41:31;;;;;;;;;;;;;;;3.97;55.72;102288.02;1688624;83;20215;-57
2021/03/30 00:44:39;;;;;;;;;;;;;;;3.94;55.74;102294.09;1687536;83;20212;-57
2021/03/30 00:47:46;;;;;;;;;;;;;;;3.89;55.90;102291.65;1688302;83;20349;-57
2021/03/30 00:50:49;;;;;;;;;;;;;;;3.89;56.03;102293.47;1691174;83;20284;-56
2021/03/30 00:54:01;;;;;;;;;;;;;;;3.85;56.10;102289.20;1662510;84;20216;-58
2021/03/30 00:57:08;;;;;;;;;;;;;;;3.84;56.29;102292.84;1689625;83;20331;-56
2021/03/30 01:00:15;;;;;;;;;;;;;;;3.84;56.44;102298.27;1688328;83;20328;-56
2021/03/30 01:03:20;;;;;;;;;;;;;;;3.81;56.53;102295.27;1688846;83;20287;-56
2021/03/30 01:06:24;;;;;;;;;;;;;;;3.80;56.64;102296.23;1686951;85;20280;-56
2021/03/30 01:09:41;;;;;;;;;;;;;;;3.78;56.83;102302.22;1722299;83;20283;-57
2021/03/30 01:12:51;;;;;;;;;;;;;;;3.74;56.91;102297.06;1750809;82;20231;-57
2021/03/30 01:15:59;;;;;;;;;;;;;;;3.71;57.18;102300.80;1756235;81;20222;-56
2021/03/30 01:19:14;;;;;;;;;;;;;;;3.70;57.44;102299.06;1751165;81;20258;-57
2021/03/30 01:22:24;;;;;;;;;;;;;;;3.69;57.58;102303.20;1755987;82;20271;-57
2021/03/30 01:25:27;;;;;;;;;;;;;;;3.68;57.69;102300.11;1750954;82;20195;-58
2021/03/30 01:28:39;;;;;;;;;;;;;;;3.67;57.80;102306.00;1756412;81;20279;-57
2021/03/30 01:31:49;;;;;;;;;;;;;;;3.65;57.93;102297.55;1751427;81;20625;-57
2021/03/30 01:34:54;;;;;;;;;;;;;;;3.61;58.11;102305.47;1755972;81;20343;-57
2021/03/30 01:38:00;;;;;;;;;;;;;;;3.59;58.25;102309.61;1750955;82;20211;-57
2021/03/30 01:41:03;;;;;;;;;;;;;;;3.59;58.39;102310.96;1756097;81;20228;-57
2021/03/30 01:44:09;;;;;;;;;;;;;;;3.57;58.53;102307.45;1750423;81;20210;-56
2021/03/30 01:47:12;;;;;;;;;;;;;;;3.55;58.64;102310.72;1756010;82;20294;-56
2021/03/30 01:50:18;;;;;;;;;;;;;;;3.52;58.83;102305.48;1751587;81;20326;-57
2021/03/30 01:53:22;;;;;;;;;;;;;;;3.50;59.00;102315.55;1756383;81;20306;-57
2021/03/30 01:56:28;;;;;;;;;;;;;;;3.49;59.20;102311.06;1751079;81;20214;-57
2021/03/30 01:59:35;;;;;;;;;;;;;;;3.52;59.32;102317.66;1756708;81;20627;-57
2021/03/30 02:02:40;;;;;;;;;;;;;;;3.51;59.43;102311.86;1750947;81;20495;-56
2021/03/30 02:05:44;;;;;;;;;;;;;;;3.52;59.51;102316.81;1756415;81;20290;-56
2021/03/30 02:08:49;;;;;;;;;;;;;;;3.47;59.63;102318.42;1744890;81;20216;-57
2021/03/30 02:14:58;;;;;;;;;;;;;;;3.44;59.94;102317.70;1708903;83;20325;-57
2021/03/30 02:18:15;;;;;;;;;;;;;;;3.41;60.03;102324.14;1710119;83;20219;-57
2021/03/30 02:21:26;;;;;;;;;;;;;;;3.40;60.15;102325.11;1704641;84;20255;-57
2021/03/30 02:24:30;;;;;;;;;;;;;;;3.40;60.15;102321.52;1710955;83;20204;-57
2021/03/30 02:27:36;;;;;;;;;;;;;;;3.40;60.21;102330.52;1737899;82;20204;-57
2021/03/30 02:30:41;;;;;;;;;;;;;;;3.39;60.23;102327.43;1705150;83;20616;-57
2021/03/30 02:33:46;;;;;;;;;;;;;;;3.38;60.32;102332.43;1709859;83;20627;-56
2021/03/30 02:36:53;;;;;;;;;;;;;;;3.37;60.37;102340.16;1705090;83;20215;-56
2021/03/30 02:39:56;;;;;;;;;;;;;;;3.37;60.38;102337.92;1688095;83;20208;-56
2021/03/30 02:43:00;;;;;;;;;;;;;;;3.32;60.56;102333.23;1704795;83;20184;-56
2021/03/30 02:46:06;;;;;;;;;;;;;;;3.24;60.76;102344.94;1710451;83;20207;-56
2021/03/30 02:49:10;;;;;;;;;;;;;;;3.21;60.94;102342.41;1738016;82;20259;-56
2021/03/30 02:52:15;;;;;;;;;;;;;;;3.20;61.14;102340.20;1704805;84;20517;-56
2021/03/30 02:55:20;;;;;;;;;;;;;;;3.21;61.17;102337.88;1707356;83;20204;-56
2021/03/30 02:58:27;;;;;;;;;;;;;;;3.22;61.21;102338.77;1705116;82;20215;-56
2021/03/30 03:01:34;;;;;;;;;;;;;;;3.24;61.25;102342.23;1674890;86;20540;-56
2021/03/30 03:04:37;;;;;;;;;;;;;;;3.22;61.31;102342.32;1676255;85;20290;-56
2021/03/30 03:07:42;;;;;;;;;;;;;;;3.21;61.41;102341.05;1708083;83;20216;-56
2021/03/30 03:10:47;;;;;;;;;;;;;;;3.19;61.47;102339.78;1739843;80;20284;-56
2021/03/30 03:13:53;;;;;;;;;;;;;;;3.19;61.58;102346.55;1711745;84;20231;-57
2021/03/30 03:16:58;;;;;;;;;;;;;;;3.19;61.68;102351.11;1700626;84;20216;-57
2021/03/30 03:20:04;;;;;;;;;;;;;;;3.19;61.74;102345.19;1683575;84;20209;-57
2021/03/30 03:23:09;;;;;;;;;;;;;;;3.20;61.83;102354.20;1711797;83;20298;-57
2021/03/30 03:26:14;;;;;;;;;;;;;;;3.17;61.82;102353.89;1681877;85;20579;-57
2021/03/30 03:29:21;;;;;;;;;;;;;;;3.16;61.95;102356.64;1681763;85;20836;-56
2021/03/30 03:32:31;;;;;;;;;;;;;;;3.14;62.12;102357.23;1681923;85;20194;-57
2021/03/30 03:35:35;;;;;;;;;;;;;;;3.15;62.25;102357.15;1681827;85;20210;-56
2021/03/30 03:38:40;;;;;;;;;;;;;;;3.16;62.32;102352.13;1701635;84;20215;-57
2021/03/30 03:41:47;;;;;;;;;;;;;;;3.16;62.35;102356.19;1711880;83;20275;-56
2021/03/30 03:44:50;;;;;;;;;;;;;;;3.18;62.41;102354.28;1704041;84;20191;-56
2021/03/30 03:47:54;;;;;;;;;;;;;;;3.15;62.38;102361.67;1711826;84;20247;-55
2021/03/30 03:50:58;;;;;;;;;;;;;;;3.06;62.50;102366.61;1681882;85;20275;-56
2021/03/30 03:54:02;;;;;;;;;;;;;;;3.01;62.67;102365.12;1681993;85;20249;-57
2021/03/30 03:57:16;;;;;;;;;;;;;;;2.95;62.93;102368.11;1702634;84;20204;-57
2021/03/30 04:00:21;;;;;;;;;;;;;;;2.96;63.13;102361.77;1740537;82;20283;-57
2021/03/30 04:03:33;;;;;;;;;;;;;;;3.03;63.24;102368.59;1711771;84;20215;-56
2021/03/30 04:06:49;;;;;;;;;;;;;;;3.09;63.25;102365.59;1703334;84;20283;-57
2021/03/30 04:09:56;;;;;;;;;;;;;;;3.16;63.28;102368.36;1707665;83;20215;-57
2021/03/30 04:12:59;;;;;;;;;;;;;;;3.25;63.23;102365.16;1658115;86;20607;-57
2021/03/30 04:16:08;;;;;;;;;;;;;;;3.34;63.14;102376.88;1658217;86;20219;-57
2021/03/30 04:19:18;;;;;;;;;;;;;;;3.41;63.00;102378.28;1658091;86;20196;-57
2021/03/30 04:22:23;;;;;;;;;;;;;;;3.47;62.88;102373.92;1658309;85;20217;-58
2021/03/30 04:25:26;;;;;;;;;;;;;;;3.54;62.76;102373.97;1658223;86;20293;-57
2021/03/30 04:28:31;;;;;;;;;;;;;;;3.56;62.68;102376.13;1658090;86;20249;-57
2021/03/30 04:31:37;;;;;;;;;;;;;;;3.61;62.65;102383.52;1658572;86;20284;-57
2021/03/30 04:34:43;;;;;;;;;;;;;;;3.67;62.60;102391.31;1658639;86;20224;-57
2021/03/30 04:37:47;;;;;;;;;;;;;;;3.70;62.65;102389.79;1658083;86;20284;-57
2021/03/30 04:40:54;;;;;;;;;;;;;;;3.76;62.69;102395.37;1657965;86;20296;-57
2021/03/30 04:43:58;;;;;;;;;;;;;;;3.82;62.66;102395.87;1657809;86;20217;-58
2021/03/30 04:47:05;;;;;;;;;;;;;;;3.85;62.61;102390.80;1658062;86;20225;-57
2021/03/30 04:50:12;;;;;;;;;;;;;;;3.91;62.64;102398.57;1657936;86;20216;-57
2021/03/30 04:53:17;;;;;;;;;;;;;;;3.96;62.65;102407.33;1658743;85;20217;-56
2021/03/30 04:56:20;;;;;;;;;;;;;;;3.96;62.89;102405.51;1655207;86;20553;-57
2021/03/30 04:59:25;;;;;;;;;;;;;;;4.05;62.87;102402.28;1631763;87;20226;-57
2021/03/30 05:02:31;;;;;;;;;;;;;;;4.17;62.97;102402.08;1648074;86;20212;-57
2021/03/30 05:05:34;;;;;;;;;;;;;;;4.30;62.84;102407.19;1657509;86;20573;-57
2021/03/30 05:08:39;;;;;;;;;;;;;;;4.43;62.68;102419.98;1654924;86;20240;-58
2021/03/30 05:11:43;;;;;;;;;;;;;;;4.57;62.57;102416.47;1673821;83;20209;-58
2021/03/30 05:14:48;;;;;;;;;;;;;;;4.69;62.24;102408.99;1753143;81;20316;-57
2021/03/30 05:17:54;;;;;;;;;;;;;;;4.78;62.12;102414.34;1748491;82;20493;-57
2021/03/30 05:20:58;;;;;;;;;;;;;;;4.86;62.06;102413.42;1749390;81;20224;-59
2021/03/30 05:24:04;;;;;;;;;;;;;;;4.99;61.96;102410.38;1745452;81;20663;-57
2021/03/30 05:27:10;;;;;;;;;;;;;;;5.10;61.58;102411.98;1759142;81;20211;-57
2021/03/30 05:30:15;;;;;;;;;;;;;;;5.16;61.21;102421.10;1763085;81;20222;-57
2021/03/30 05:33:19;;;;;;;;;;;;;;;5.23;61.09;102418.42;1753791;81;20583;-57
2021/03/30 05:36:25;;;;;;;;;;;;;;;5.33;60.98;102419.60;1751950;81;20225;-57
2021/03/30 05:39:29;;;;;;;;;;;;;;;5.43;60.77;102420.80;1735951;79;20255;-57
2021/03/30 05:42:35;;;;;;;;;;;;;;;5.52;60.52;102422.95;1777915;79;20627;-57
2021/03/30 05:45:39;;;;;;;;;;;;;;;5.62;60.30;102426.86;1764293;80;20222;-57
2021/03/30 05:48:45;;;;;;;;;;;;;;;5.68;60.00;102421.03;1762568;81;20207;-57
2021/03/30 05:51:49;;;;;;;;;;;;;;;5.73;59.77;102427.95;1762182;81;20215;-57
2021/03/30 05:54:56;;;;;;;;;;;;;;;5.80;59.58;102423.86;1748988;81;20617;-57
2021/03/30 05:58:02;;;;;;;;;;;;;;;5.87;59.47;102427.11;1749248;81;20386;-57
2021/03/30 06:01:09;;;;;;;;;;;;;;;5.95;59.38;102437.02;1720292;83;20642;-56
2021/03/30 06:04:19;;;;;;;;;;;;;;;6.02;59.08;102430.23;1756044;81;20306;-57
2021/03/30 06:07:25;;;;;;;;;;;;;;;6.07;58.80;102424.03;1755157;82;20290;-57
2021/03/30 06:10:35;;;;;;;;;;;;;;;6.13;58.53;102430.91;1733444;82;20289;-59
2021/03/30 06:14:01;;;;;;;;;;;;;;;6.18;58.35;102435.09;1740703;81;20240;-58
2021/03/30 06:17:08;;;;;;;;;;;;;;;6.23;58.26;102436.16;1740379;82;20213;-58
2021/03/30 06:20:15;;;;;;;;;;;;;;;6.33;58.10;102435.97;1744028;81;20203;-58
2021/03/30 06:23:25;;;;;;;;;;;;;;;6.42;57.98;102434.89;1740953;82;20251;-59
2021/03/30 06:26:32;;;;;;;;;;;;;;;6.50;57.77;102435.23;1734562;82;20237;-57
2021/03/30 06:29:47;;;;;;;;;;;;;;;6.59;57.57;102433.30;1736941;82;20196;-57
2021/03/30 06:32:53;;;;;;;;;;;;;;;6.66;57.07;102433.26;1760486;81;20199;-58
2021/03/30 06:35:57;;;;;;;;;;;;;;;6.76;56.77;102427.61;1706691;83;20213;-58
2021/03/30 06:39:05;;;;;;;;;;;;;;;6.87;56.53;102426.41;1714623;83;20246;-58
2021/03/30 06:42:18;;;;;;;;;;;;;;;6.99;56.04;102427.44;1716022;83;20205;-58
2021/03/30 06:45:29;;;;;;;;;;;;;;;7.08;55.67;102427.70;1716408;83;20198;-58
2021/03/30 06:48:33;;;;;;;;;;;;;;;7.17;55.03;102428.42;1740879;82;20327;-58
2021/03/30 06:51:38;;;;;;;;;;;;;;;7.25;54.27;102423.33;1723479;81;20238;-58
2021/03/30 06:54:46;;;;;;;;;;;;;;;7.30;53.46;102432.06;1696646;83;20210;-58
2021/03/30 06:57:54;;;;;;;;;;;;;;;7.33;53.14;102428.24;1716236;83;20202;-58
2021/03/30 07:00:57;;;;;;;;;;;;;;;7.39;53.01;102430.53;1677118;85;20226;-57
2021/03/30 07:04:02;;;;;;;;;;;;;;;7.43;52.46;102433.45;1728989;82;20205;-58
2021/03/30 07:07:07;;;;;;;;;;;;;;;7.48;52.27;102428.56;1703629;82;20268;-56
2021/03/30 07:10:12;;;;;;;;;;;;;;;7.59;52.08;102430.91;1646550;86;20257;-57
2021/03/30 07:13:19;;;;;;;;;;;;;;;7.71;51.44;102433.78;1707857;82;20590;-59
2021/03/30 07:16:28;;;;;;;;;;;;;;;7.80;51.12;102439.94;1735479;82;20226;-58
2021/03/30 07:19:36;;;;;;;;;;;;;;;7.89;50.45;102432.47;1719797;83;20231;-57
2021/03/30 07:22:41;;;;;;;;;;;;;;;7.92;50.26;102428.16;1721177;83;20218;-57
2021/03/30 07:25:52;;;;;;;;;;;;;;;7.97;50.13;102439.62;1724269;83;20557;-59
2021/03/30 07:28:59;;;;;;;;;;;;;;;8.04;50.01;102436.33;1733043;80;20206;-59
2021/03/30 07:32:07;;;;;;;;;;;;;;;8.10;49.46;102437.77;1722214;82;20217;-59
2021/03/30 07:35:15;;;;;;;;;;;;;;;8.17;49.07;102445.88;1742356;82;20205;-59
2021/03/30 07:38:29;;;;;;;;;;;;;;;8.26;49.22;102447.48;1745469;82;20205;-60
2021/03/30 07:41:39;;;;;;;;;;;;;;;8.32;49.06;102440.72;1758764;80;20230;-59
2021/03/30 07:44:40;;;;;;;;;;;;;;;8.36;48.40;102446.33;1749656;80;20248;-58
2021/03/30 07:47:44;;;;;;;;;;;;;;;8.42;48.61;102451.36;1743694;80;20374;-58
2021/03/30 07:51:19;;;;;;;;;;;;;;;8.42;48.35;102442.66;1742605;80;20233;-59
2021/03/30 07:54:23;;;;;;;;;;;;;;;8.42;48.66;102454.94;1738161;82;20217;-58
2021/03/30 07:57:28;;;;;;;;;;;;;;;8.51;48.63;102448.84;1746632;80;20215;-58
2021/03/30 08:00:40;;;;;;;;;;;;;;;8.60;48.36;102448.15;1736888;81;20655;-58
2021/03/30 08:03:44;;;;;;;;;;;;;;;8.69;48.02;102457.50;1750252;82;20598;-59
2021/03/30 08:06:57;;;;;;;;;;;;;;;8.74;48.00;102459.41;1757238;80;20540;-58
2021/03/30 08:10:22;;;;;;;;;;;;;;;8.83;47.90;102458.22;1753139;81;20243;-58
2021/03/30 08:13:42;;;;;;;;;;;;;;;8.94;47.81;102451.47;1721177;81;20295;-59
2021/03/30 08:16:47;;;;;;;;;;;;;;;9.07;47.67;102458.25;1709715;84;20290;-60
2021/03/30 08:20:09;;;;;;;;;;;;;;;9.17;47.04;102450.22;1704725;84;20472;-59
2021/03/30 08:23:13;;;;;;;;;;;;;;;9.17;46.89;102460.67;1680636;85;20237;-58
2021/03/30 08:26:36;;;;;;;;;;;;;;;9.20;46.57;102459.06;1707892;84;20215;-58
2021/03/30 08:29:42;;;;;;;;;;;;;;;9.25;46.68;102458.23;1710306;83;20583;-58
2021/03/30 08:32:53;;;;;;;;;;;;;;;9.34;46.88;102449.84;1707884;84;20247;-60
2021/03/30 08:35:58;;;;;;;;;;;;;;;9.34;45.15;102453.41;1706964;83;20830;-59
2021/03/30 08:39:13;;;;;;;;;;;;;;;9.21;45.21;102449.91;1687775;84;20200;-59
2021/03/30 08:42:19;;;;;;;;;;;;;;;9.25;45.60;102456.86;1710096;84;20596;-61
2021/03/30 08:45:24;;;;;;;;;;;;;;;9.34;45.54;102453.94;1671967;83;20247;-59
2021/03/30 08:48:42;;;;;;;;;;;;;;;9.26;45.20;102458.59;1660889;84;20230;-60
2021/03/30 08:51:49;;;;;;;;;;;;;;;9.19;44.93;102459.19;1656396;86;20243;-58
2021/03/30 08:54:59;;;;;;;;;;;;;;;9.04;44.53;102453.02;1710362;83;20219;-58
2021/03/30 08:58:05;;;;;;;;;;;;;;;8.95;44.44;102453.72;1711974;83;20235;-60
2021/03/30 09:01:13;;;;;;;;;;;;;;;8.89;44.53;102458.28;1709314;83;20220;-58
2021/03/30 09:04:20;;;;;;;;;;;;;;;8.87;44.58;102447.95;1710516;84;20208;-57
2021/03/30 09:07:27;;;;;;;;;;;;;;;9.02;45.72;102452.28;1708501;84;20251;-58
2021/03/30 09:10:31;;;;;;;;;;;;;;;9.26;44.92;102453.64;1700594;84;20245;-57
2021/03/30 09:13:38;;;;;;;;;;;;;;;9.51;44.76;102444.81;1668345;85;20569;-57
2021/03/30 09:16:44;;;;;;;;;;;;;;;9.72;43.65;102443.12;1694336;83;20216;-58
2021/03/30 09:19:53;;;;;;;;;;;;;;;9.72;42.90;102440.38;1690962;83;20567;-58
2021/03/30 09:22:58;;;;;;;;;;;;;;;9.87;43.45;102446.03;1684264;85;20280;-58
2021/03/30 09:26:01;;;;;;;;;;;;;;;10.16;43.24;102432.28;1686012;84;20586;-58
2021/03/30 09:29:06;;;;;;;;;;;;;;;10.45;42.93;102442.24;1688665;83;20216;-58
2021/03/30 09:32:13;;;;;;;;;;;;;;;10.64;42.30;102443.00;1663047;85;20294;-59
2021/03/30 09:35:25;;;;;;;;;;;;;;;10.65;40.91;102436.52;1668892;85;20575;-58
2021/03/30 09:38:32;;;;;;;;;;;;;;;10.48;41.28;102434.66;1668983;85;20357;-58
2021/03/30 09:41:50;;;;;;;;;;;;;;;10.45;42.37;102441.76;1638225;86;20498;-58
2021/03/30 09:44:55;;;;;;;;;;;;;;;10.63;42.16;102440.75;1699054;84;20252;-57
2021/03/30 09:48:01;;;;;;;;;;;;;;;10.78;41.90;102445.47;1692438;84;20212;-58
2021/03/30 09:51:06;;;;;;;;;;;;;;;10.95;42.04;102440.33;1684287;85;20219;-58
2021/03/30 09:54:30;;;;;;;;;;;;;;;11.05;41.49;102433.05;1684056;85;20244;-58
2021/03/30 09:57:35;;;;;;;;;;;;;;;11.05;39.88;102430.84;1678887;85;20332;-59
2021/03/30 10:00:40;;;;;;;;;;;;;;;11.02;40.29;102426.98;1683645;83;20247;-58
2021/03/30 10:03:45;;;;;;;;;;;;;;;11.16;40.51;102423.95;1699110;82;20226;-60
2021/03/30 10:06:52;;;;;;;;;;;;;;;11.19;40.11;102429.17;1694835;84;20702;-57
2021/03/30 10:10:04;;;;;;;;;;;;;;;11.11;39.90;102430.31;1699026;82;20273;-57
2021/03/30 10:13:11;;;;;;;;;;;;;;;10.99;40.68;102430.84;1696903;83;20202;-56
2021/03/30 10:16:17;;;;;;;;;;;;;;;10.98;40.18;102418.64;1687519;80;20250;-54
2021/03/30 10:19:24;;;;;;;;;;;;;;;10.98;40.25;102423.63;1695752;82;20669;-54
2021/03/30 10:22:36;;;;;;;;;;;;;;;11.10;40.41;102423.95;1748565;82;20657;-55
2021/03/30 10:25:44;;;;;;;;;;;;;;;11.00;39.83;102422.13;1737397;82;20226;-54
2021/03/30 10:28:48;;;;;;;;;;;;;;;11.09;40.99;102421.34;1753384;82;20224;-54
2021/03/30 10:32:02;;;;;;;;;;;;;;;11.37;40.36;102411.16;1752017;81;20251;-55
2021/03/30 10:35:04;;;;;;;;;;;;;;;11.60;39.80;102410.91;1753837;81;20314;-56
2021/03/30 10:38:09;;;;;;;;;;;;;;;11.76;38.70;102402.24;1752563;81;20227;-56
2021/03/30 10:41:15;;;;;;;;;;;;;;;11.63;38.63;102400.19;1752386;81;20241;-55
2021/03/30 10:44:21;;;;;;;;;;;;;;;11.67;38.55;102398.41;1751750;82;20208;-54
2021/03/30 10:47:29;;;;;;;;;;;;;;;11.73;38.20;102386.90;1751621;80;20590;-56
2021/03/30 10:50:32;;;;;;;;;;;;;;;11.79;38.49;102390.50;1720526;81;20365;-56
2021/03/30 10:53:39;;;;;;;;;;;;;;;11.63;38.01;102397.45;1721631;83;20651;-55
2021/03/30 10:56:47;;;;;;;;;;;;;;;11.35;37.88;102389.84;1692744;83;20219;-54
2021/03/30 10:59:54;;;;;;;;;;;;;;;11.34;38.64;102379.86;1752172;81;20294;-55
2021/03/30 11:02:59;;;;;;;;;;;;;;;11.56;39.36;102377.03;1752871;82;20683;-55
2021/03/30 11:06:04;;;;;;;;;;;;;;;11.94;38.97;102373.16;1750801;81;20239;-55
2021/03/30 11:09:07;;;;;;;;;;;;;;;12.31;37.68;102373.48;1725794;82;20328;-55
2021/03/30 11:12:15;;;;;;;;;;;;;;;12.63;37.17;102372.80;1755455;81;20377;-56
2021/03/30 11:15:21;;;;;;;;;;;;;;;12.93;37.21;102363.09;1749483;81;20212;-55
2021/03/30 11:18:27;;;;;;;;;;;;;;;13.13;36.69;102364.87;1749550;80;20563;-56
2021/03/30 11:21:35;;;;;;;;;;;;;;;13.25;35.56;102357.73;1717495;83;20253;-56
2021/03/30 11:24:40;;;;;;;;;;;;;;;13.13;34.93;102352.00;1736773;81;20207;-55
2021/03/30 11:27:49;;;;;;;;;;;;;;;12.73;35.40;102356.69;1742384;80;20261;-56
2021/03/30 11:30:53;;;;;;;;;;;;;;;12.52;36.71;102357.31;1742006;82;20216;-56
2021/03/30 11:34:08;;;;;;;;;;;;;;;12.70;37.58;102352.00;1742033;82;20568;-57
2021/03/30 11:37:53;;;;;;;;;;;;;;;12.96;36.31;102361.42;1742257;82;20224;-54
2021/03/30 11:40:10;;;;;;;;;;;;;;;12.87;35.47;102345.80;1738773;82;20545;-55
2021/03/30 11:43:17;;;;;;;;;;;;;;;12.63;36.53;102348.06;1743461;80;20216;-55
2021/03/30 11:46:22;;;;;;;;;;;;;;;12.69;36.56;102345.63;1747584;81;20302;-55
2021/03/30 11:49:27;;;;;;;;;;;;;;;12.80;35.98;102338.63;1748128;81;20606;-54
2021/03/30 11:52:33;;;;;;;;;;;;;;;13.05;36.78;102335.34;1748728;81;20326;-56
2021/03/30 11:55:37;;;;;;;;;;;;;;;13.49;35.71;102330.61;1747661;82;20211;-55
2021/03/30 11:58:41;;;;;;;;;;;;;;;13.89;35.86;102316.59;1747363;82;20294;-54
2021/03/30 12:01:45;;;;;;;;;;;;;;;14.22;35.04;102323.44;1747260;81;20227;-57
2021/03/30 12:04:48;;;;;;;;;;;;;;;14.50;34.66;102311.42;1716736;83;20258;-56
2021/03/30 12:07:54;;;;;;;;;;;;;;;14.54;33.43;102317.00;1716411;83;20213;-55
2021/03/30 12:10:59;;;;;;;;;;;;;;;14.42;33.72;102313.58;1716802;83;20416;-57
2021/03/30 12:14:05;;;;;;;;;;;;;;;14.26;33.09;102316.62;1746160;81;20180;-56
2021/03/30 12:17:10;;;;;;;;;;;;;;;13.64;33.29;102306.25;1740394;82;20224;-55
2021/03/30 12:20:17;;;;;;;;;;;;;;;13.32;34.56;102313.48;1758839;81;20563;-56
2021/03/30 12:23:23;;;;;;;;;;;;;;;13.08;34.38;102307.55;1735375;82;20233;-55
2021/03/30 12:26:27;;;;;;;;;;;;;;;12.63;34.84;102317.34;1755906;81;20263;-56
2021/03/30 12:29:31;;;;;;;;;;;;;;;12.63;35.81;102316.47;1748037;81;20203;-59
2021/03/30 12:32:34;;;;;;;;;;;;;;;12.80;35.27;102315.76;1754262;81;20256;-59
2021/03/30 12:35:37;;;;;;;;;;;;;;;13.10;35.29;102301.41;1719822;83;20208;-59
2021/03/30 12:38:44;;;;;;;;;;;;;;;13.43;35.11;102296.81;1754145;81;20603;-59
2021/03/30 12:41:47;;;;;;;;;;;;;;;13.84;35.30;102305.20;1720674;83;20769;-61
2021/03/30 12:44:51;;;;;;;;;;;;;;;14.25;34.41;102296.99;1747641;82;20256;-59
2021/03/30 12:47:58;;;;;;;;;;;;;;;14.52;33.60;102289.59;1755078;82;20275;-60
2021/03/30 12:51:04;;;;;;;;;;;;;;;14.74;32.86;102289.14;1751829;81;20280;-59
2021/03/30 12:54:07;;;;;;;;;;;;;;;14.76;33.13;102280.72;1752218;82;20223;-59
2021/03/30 12:57:12;;;;;;;;;;;;;;;14.93;33.03;102292.25;1759937;81;20283;-59
2021/03/30 13:00:16;;;;;;;;;;;;;;;14.96;32.47;102293.31;1724163;83;20243;-60
2021/03/30 13:03:20;;;;;;;;;;;;;;;14.83;31.89;102281.30;1721997;83;20223;-59
2021/03/30 13:06:26;;;;;;;;;;;;;;;14.77;32.00;102276.92;1751915;81;20238;-59
2021/03/30 13:09:33;;;;;;;;;;;;;;;14.82;32.19;102278.70;1758202;81;20607;-59
2021/03/30 13:12:36;;;;;;;;;;;;;;;14.69;32.59;102271.31;1755682;79;20326;-59
2021/03/30 13:15:43;;;;;;;;;;;;;;;14.60;32.17;102269.52;1739108;81;20272;-60
2021/03/30 13:18:50;;;;;;;;;;;;;;;14.50;32.11;102262.69;1741443;81;20277;-59
2021/03/30 13:21:57;;;;;;;;;;;;;;;14.42;32.28;102261.72;1687500;84;20231;-59
2021/03/30 13:25:05;;;;;;;;;;;;;;;14.50;33.02;102256.30;1693013;84;20195;-59
2021/03/30 13:28:20;;;;;;;;;;;;;;;14.71;32.84;102268.75;1694727;84;20253;-58
2021/03/30 13:31:25;;;;;;;;;;;;;;;14.85;32.79;102261.33;1684537;83;20204;-58
2021/03/30 13:34:30;;;;;;;;;;;;;;;14.97;32.69;102251.78;1697653;83;20204;-60
2021/03/30 13:37:35;;;;;;;;;;;;;;;15.05;31.32;102248.22;1708555;83;20237;-59
2021/03/30 13:40:40;;;;;;;;;;;;;;;14.74;31.60;102252.42;1703388;83;20259;-59
2021/03/30 13:43:45;;;;;;;;;;;;;;;14.76;32.54;102254.52;1699561;84;20283;-58
2021/03/30 13:46:50;;;;;;;;;;;;;;;14.94;32.58;102257.62;1697730;83;20488;-60
2021/03/30 13:49:55;;;;;;;;;;;;;;;15.08;32.33;102258.09;1690885;84;20228;-59
2021/03/30 13:52:59;;;;;;;;;;;;;;;15.04;31.81;102261.67;1702302;83;20577;-59
2021/03/30 13:56:13;;;;;;;;;;;;;;;14.82;31.73;102256.14;1700654;84;20215;-59
2021/03/30 13:59:18;;;;;;;;;;;;;;;14.58;31.86;102256.39;1698831;83;20225;-58
2021/03/30 14:02:24;;;;;;;;;;;;;;;14.35;32.32;102246.31;1691434;84;20434;-59
2021/03/30 14:05:29;;;;;;;;;;;;;;;14.23;32.18;102245.27;1698533;84;20220;-59
2021/03/30 14:08:32;;;;;;;;;;;;;;;14.22;32.36;102251.28;1694591;84;20216;-59
2021/03/30 14:11:45;;;;;;;;;;;;;;;14.20;31.79;102246.95;1686174;84;20354;-59
2021/03/30 14:14:48;;;;;;;;;;;;;;;14.07;32.50;102251.95;1685372;85;20659;-59
2021/03/30 14:17:59;;;;;;;;;;;;;;;14.11;32.30;102249.27;1697171;83;20212;-60
2021/03/30 14:21:06;;;;;;;;;;;;;;;14.24;32.96;102258.05;1707609;81;20231;-60
2021/03/30 14:24:18;;;;;;;;;;;;;;;14.36;33.38;102245.31;1744599;82;20200;-59
2021/03/30 14:27:26;;;;;;;;;;;;;;;14.30;32.84;102252.79;1746346;82;20690;-59
2021/03/30 14:30:32;;;;;;;;;;;;;;;14.21;33.16;102252.81;1745809;82;20210;-59
2021/03/30 14:33:39;;;;;;;;;;;;;;;14.19;32.52;102254.88;1714356;82;20534;-60
2021/03/30 14:36:50;;;;;;;;;;;;;;;14.24;32.55;102258.05;1741226;80;20211;-60
2021/03/30 14:43:17;;;;;;;;;;;;;;;14.29;32.87;102246.06;1728968;81;20255;-59
2021/03/30 14:53:07;;;;;;;;;;;;;;;13.97;33.31;102254.75;1745051;82;20629;-59
2021/03/30 14:56:16;;;;;;;;;;;;;;;13.84;33.48;102250.63;1741610;81;20241;-59
2021/03/30 14:59:31;;;;;;;;;;;;;;;13.75;34.05;102257.05;1746197;81;20207;-59
2021/03/30 15:05:36;;;;;;;;;;;;;;;14.42;33.66;102243.30;1739153;82;20254;-59
2021/03/30 15:08:39;;;;;;;;;;;;;;;14.77;32.94;102246.59;1736898;82;20266;-59
2021/03/30 15:11:47;;;;;;;;;;;;;;;14.74;32.38;102250.54;1745277;82;20327;-59
2021/03/30 15:14:52;;;;;;;;;;;;;;;14.68;32.16;102242.03;1746229;82;20215;-60
2021/03/30 15:17:57;;;;;;;;;;;;;;;14.31;32.62;102238.52;1747548;81;20634;-59
2021/03/30 15:21:02;;;;;;;;;;;;;;;14.16;33.14;102243.64;1746538;81;20575;-60
2021/03/30 15:24:07;;;;;;;;;;;;;;;13.95;33.51;102243.05;1733615;82;20211;-59
2021/03/30 15:27:12;;;;;;;;;;;;;;;13.69;33.60;102250.75;1745461;81;20243;-59
2021/03/30 15:30:18;;;;;;;;;;;;;;;13.50;33.78;102249.81;1745875;82;20283;-60
2021/03/30 15:33:23;;;;;;;;;;;;;;;13.27;34.23;102248.94;1742712;81;20223;-60
2021/03/30 15:36:28;;;;;;;;;;;;;;;12.92;34.36;102251.40;1743398;81;20311;-59
2021/03/30 15:39:31;;;;;;;;;;;;;;;12.67;35.00;102254.73;1746460;81;20268;-61
2021/03/30 15:42:37;;;;;;;;;;;;;;;12.49;35.40;102259.19;1744605;81;20234;-59
2021/03/30 15:45:47;;;;;;;;;;;;;;;12.17;35.86;102256.66;1735519;82;20206;-60
2021/03/30 15:48:48;;;;;;;;;;;;;;;11.85;36.25;102262.83;1740241;81;20239;-60
2021/03/30 15:51:53;;;;;;;;;;;;;;;11.82;36.80;102263.98;1741926;82;20210;-58
2021/03/30 15:58:04;;;;;;;;;;;;;;;11.73;37.42;102264.80;1747499;82;20575;-59
2021/03/30 16:01:11;;;;;;;;;;;;;;;11.54;37.65;102263.81;1747475;82;20323;-59
2021/03/30 16:04:17;;;;;;;;;;;;;;;11.20;38.00;102278.25;1745137;82;20289;-58
2021/03/30 16:07:26;;;;;;;;;;;;;;;10.76;38.64;102279.85;1747580;81;20283;-58
2021/03/30 16:10:32;;;;;;;;;;;;;;;10.41;39.44;102276.00;1747463;81;20621;-59
2021/03/30 16:13:36;;;;;;;;;;;;;;;10.18;40.21;102279.76;1736718;82;20225;-58
2021/03/30 16:16:40;;;;;;;;;;;;;;;9.92;40.67;102276.92;1735629;82;20202;-59
2021/03/30 16:19:45;;;;;;;;;;;;;;;9.61;41.46;102284.48;1736124;83;20225;-59
2021/03/30 16:22:50;;;;;;;;;;;;;;;9.39;42.06;102288.56;1736975;82;20228;-60
2021/03/30 16:25:55;;;;;;;;;;;;;;;9.22;42.47;102286.30;1741019;81;20227;-59